Terminal Aerodrome Forecast
Issued by NWS

Home | Current Version | Previous Version | Text Only | Print | Product List | Glossary On
Versions: 1 2 3 4 5 6 7 8 9 10 11 12
000
FTUS45 KVEF 181728
TAFHND
TAF
KHND 181728Z 1818/1918 16007KT P6SM SCT250
     FM190100 21008KT P6SM SCT080 BKN150
     FM190500 20014G22KT P6SM -SHRA BKN050 OVC080=

USA.gov is the U.S. government's official web portal to all federal, state and local government web resources and services.